sensor_id;sensor_type;location;lat;lon;timestamp;P1;durP1;ratioP1;P2;durP2;ratioP2
46563;SDS011;32291;52.010;4.446;2023-05-07T00:00:11;30.88;;;27.60;;
46563;SDS011;32291;52.010;4.446;2023-05-07T00:01:16;33.45;;;29.83;;
46563;SDS011;32291;52.010;4.446;2023-05-07T00:02:17;31.50;;;28.25;;
46563;SDS011;32291;52.010;4.446;2023-05-07T00:03:19;31.38;;;27.58;;
46563;SDS011;32291;52.010;4.446;2023-05-07T00:04:21;33.33;;;29.85;;
46563;SDS011;32291;52.010;4.446;2023-05-07T00:05:23;34.83;;;29.70;;
46563;SDS011;32291;52.010;4.446;2023-05-07T00:06:25;32.45;;;29.02;;
46563;SDS011;32291;52.010;4.446;2023-05-07T00:07:30;32.75;;;29.38;;
46563;SDS011;32291;52.010;4.446;2023-05-07T00:08:32;32.20;;;28.92;;
46563;SDS011;32291;52.010;4.446;2023-05-07T00:09:33;31.70;;;28.40;;
46563;SDS011;32291;52.010;4.446;2023-05-07T00:10:35;31.52;;;28.33;;
46563;SDS011;32291;52.010;4.446;2023-05-07T00:11:38;32.60;;;28.08;;
46563;SDS011;32291;52.010;4.446;2023-05-07T00:12:39;33.47;;;29.88;;
46563;SDS011;32291;52.010;4.446;2023-05-07T00:13:42;34.58;;;28.98;;
46563;SDS011;32291;52.010;4.446;2023-05-07T00:14:43;32.97;;;29.30;;
46563;SDS011;32291;52.010;4.446;2023-05-07T00:15:46;32.88;;;29.52;;
46563;SDS011;32291;52.010;4.446;2023-05-07T00:16:48;31.23;;;28.00;;
46563;SDS011;32291;52.010;4.446;2023-05-07T00:17:49;32.70;;;29.50;;
46563;SDS011;32291;52.010;4.446;2023-05-07T00:18:51;32.38;;;28.95;;
46563;SDS011;32291;52.010;4.446;2023-05-07T00:19:53;31.50;;;28.20;;
46563;SDS011;32291;52.010;4.446;2023-05-07T00:20:55;31.73;;;28.27;;
46563;SDS011;32291;52.010;4.446;2023-05-07T00:21:57;30.55;;;27.27;;
46563;SDS011;32291;52.010;4.446;2023-05-07T00:22:59;31.52;;;28.42;;
46563;SDS011;32291;52.010;4.446;2023-05-07T00:24:01;31.85;;;28.52;;
46563;SDS011;32291;52.010;4.446;2023-05-07T00:25:03;30.92;;;27.73;;
46563;SDS011;32291;52.010;4.446;2023-05-07T00:26:06;34.22;;;29.77;;
46563;SDS011;32291;52.010;4.446;2023-05-07T00:27:07;31.80;;;28.40;;
46563;SDS011;32291;52.010;4.446;2023-05-07T00:28:09;32.70;;;29.20;;
46563;SDS011;32291;52.010;4.446;2023-05-07T00:29:11;36.25;;;28.90;;
46563;SDS011;32291;52.010;4.446;2023-05-07T00:30:13;33.63;;;29.85;;
46563;SDS011;32291;52.010;4.446;2023-05-07T00:31:15;33.78;;;30.10;;
46563;SDS011;32291;52.010;4.446;2023-05-07T00:32:16;35.42;;;30.88;;
46563;SDS011;32291;52.010;4.446;2023-05-07T00:33:18;33.88;;;30.27;;
46563;SDS011;32291;52.010;4.446;2023-05-07T00:34:21;38.42;;;32.60;;
46563;SDS011;32291;52.010;4.446;2023-05-07T00:35:23;34.22;;;30.60;;
46563;SDS011;32291;52.010;4.446;2023-05-07T00:36:25;35.78;;;31.38;;
46563;SDS011;32291;52.010;4.446;2023-05-07T00:37:27;33.92;;;30.40;;
46563;SDS011;32291;52.010;4.446;2023-05-07T00:38:28;35.63;;;31.88;;
46563;SDS011;32291;52.010;4.446;2023-05-07T00:39:30;32.63;;;29.23;;
46563;SDS011;32291;52.010;4.446;2023-05-07T00:40:31;34.95;;;31.30;;
46563;SDS011;32291;52.010;4.446;2023-05-07T00:41:33;37.53;;;33.53;;
46563;SDS011;32291;52.010;4.446;2023-05-07T00:42:35;33.20;;;29.77;;
46563;SDS011;32291;52.010;4.446;2023-05-07T00:43:37;34.95;;;31.08;;
46563;SDS011;32291;52.010;4.446;2023-05-07T00:44:39;35.30;;;31.80;;
46563;SDS011;32291;52.010;4.446;2023-05-07T00:45:41;34.15;;;30.75;;
46563;SDS011;32291;52.010;4.446;2023-05-07T00:46:43;35.55;;;31.77;;
46563;SDS011;32291;52.010;4.446;2023-05-07T00:47:46;32.90;;;29.65;;
46563;SDS011;32291;52.010;4.446;2023-05-07T00:48:47;35.53;;;31.95;;
46563;SDS011;32291;52.010;4.446;2023-05-07T00:49:51;35.60;;;31.88;;
46563;SDS011;32291;52.010;4.446;2023-05-07T00:50:53;33.47;;;30.05;;
46563;SDS011;32291;52.010;4.446;2023-05-07T00:51:55;35.38;;;31.77;;
46563;SDS011;32291;52.010;4.446;2023-05-07T00:52:57;33.58;;;30.05;;
46563;SDS011;32291;52.010;4.446;2023-05-07T00:54:01;34.42;;;30.85;;
46563;SDS011;32291;52.010;4.446;2023-05-07T00:55:06;33.42;;;30.02;;
46563;SDS011;32291;52.010;4.446;2023-05-07T00:56:08;34.78;;;31.33;;
46563;SDS011;32291;52.010;4.446;2023-05-07T00:57:10;34.90;;;31.27;;
46563;SDS011;32291;52.010;4.446;2023-05-07T00:58:12;33.97;;;30.58;;
46563;SDS011;32291;52.010;4.446;2023-05-07T00:59:14;32.03;;;28.77;;
46563;SDS011;32291;52.010;4.446;2023-05-07T01:00:16;35.95;;;31.17;;
46563;SDS011;32291;52.010;4.446;2023-05-07T01:01:19;33.33;;;29.95;;
46563;SDS011;32291;52.010;4.446;2023-05-07T01:02:20;35.03;;;31.40;;
46563;SDS011;32291;52.010;4.446;2023-05-07T01:03:22;35.13;;;31.50;;
46563;SDS011;32291;52.010;4.446;2023-05-07T01:04:25;33.60;;;30.20;;
46563;SDS011;32291;52.010;4.446;2023-05-07T01:05:27;28.35;;;25.45;;
46563;SDS011;32291;52.010;4.446;2023-05-07T01:06:31;30.92;;;27.60;;
46563;SDS011;32291;52.010;4.446;2023-05-07T01:07:34;31.98;;;28.70;;
46563;SDS011;32291;52.010;4.446;2023-05-07T01:08:39;33.53;;;30.15;;
46563;SDS011;32291;52.010;4.446;2023-05-07T01:09:42;33.90;;;30.35;;
46563;SDS011;32291;52.010;4.446;2023-05-07T01:10:45;32.28;;;28.98;;
46563;SDS011;32291;52.010;4.446;2023-05-07T01:11:47;33.70;;;30.13;;
46563;SDS011;32291;52.010;4.446;2023-05-07T01:12:51;35.00;;;31.25;;
46563;SDS011;32291;52.010;4.446;2023-05-07T01:13:55;33.85;;;30.45;;
46563;SDS011;32291;52.010;4.446;2023-05-07T01:14:59;33.40;;;30.00;;
46563;SDS011;32291;52.010;4.446;2023-05-07T01:16:02;36.17;;;32.38;;
46563;SDS011;32291;52.010;4.446;2023-05-07T01:17:05;35.35;;;31.55;;
46563;SDS011;32291;52.010;4.446;2023-05-07T01:18:07;35.85;;;32.22;;
46563;SDS011;32291;52.010;4.446;2023-05-07T01:19:09;36.15;;;32.35;;
46563;SDS011;32291;52.010;4.446;2023-05-07T01:20:17;36.75;;;32.67;;
46563;SDS011;32291;52.010;4.446;2023-05-07T01:21:22;33.72;;;30.13;;
46563;SDS011;32291;52.010;4.446;2023-05-07T01:23:34;35.30;;;31.65;;
46563;SDS011;32291;52.010;4.446;2023-05-07T01:24:37;32.45;;;29.20;;
46563;SDS011;32291;52.010;4.446;2023-05-07T01:25:39;33.97;;;30.52;;
46563;SDS011;32291;52.010;4.446;2023-05-07T01:26:41;34.85;;;31.10;;
46563;SDS011;32291;52.010;4.446;2023-05-07T01:27:45;31.17;;;28.02;;
46563;SDS011;32291;52.010;4.446;2023-05-07T01:28:46;34.50;;;30.92;;
46563;SDS011;32291;52.010;4.446;2023-05-07T01:29:48;31.00;;;27.70;;
46563;SDS011;32291;52.010;4.446;2023-05-07T01:30:52;33.63;;;30.30;;
46563;SDS011;32291;52.010;4.446;2023-05-07T01:32:00;29.77;;;26.67;;
46563;SDS011;32291;52.010;4.446;2023-05-07T01:33:06;33.85;;;30.05;;
46563;SDS011;32291;52.010;4.446;2023-05-07T01:34:14;32.53;;;29.35;;
46563;SDS011;32291;52.010;4.446;2023-05-07T01:35:19;32.83;;;29.50;;
46563;SDS011;32291;52.010;4.446;2023-05-07T01:36:27;34.25;;;30.17;;
46563;SDS011;32291;52.010;4.446;2023-05-07T01:37:30;34.75;;;30.88;;
46563;SDS011;32291;52.010;4.446;2023-05-07T01:38:33;32.72;;;29.30;;
46563;SDS011;32291;52.010;4.446;2023-05-07T01:39:38;29.90;;;26.80;;
46563;SDS011;32291;52.010;4.446;2023-05-07T01:40:41;30.88;;;27.73;;
46563;SDS011;32291;52.010;4.446;2023-05-07T01:41:44;30.83;;;27.52;;
46563;SDS011;32291;52.010;4.446;2023-05-07T01:42:47;30.85;;;27.40;;
46563;SDS011;32291;52.010;4.446;2023-05-07T01:43:49;30.35;;;27.25;;
46563;SDS011;32291;52.010;4.446;2023-05-07T01:44:53;30.38;;;27.25;;
46563;SDS011;32291;52.010;4.446;2023-05-07T01:45:54;29.88;;;26.73;;
46563;SDS011;32291;52.010;4.446;2023-05-07T01:46:58;30.75;;;27.40;;
46563;SDS011;32291;52.010;4.446;2023-05-07T01:48:01;30.48;;;27.50;;
46563;SDS011;32291;52.010;4.446;2023-05-07T01:49:04;29.23;;;26.27;;
46563;SDS011;32291;52.010;4.446;2023-05-07T01:50:06;30.20;;;27.15;;
46563;SDS011;32291;52.010;4.446;2023-05-07T01:51:09;31.27;;;28.05;;
46563;SDS011;32291;52.010;4.446;2023-05-07T01:52:11;30.55;;;27.35;;
46563;SDS011;32291;52.010;4.446;2023-05-07T01:53:14;28.40;;;25.50;;
46563;SDS011;32291;52.010;4.446;2023-05-07T01:54:16;30.13;;;25.67;;
46563;SDS011;32291;52.010;4.446;2023-05-07T01:55:18;28.98;;;25.98;;
46563;SDS011;32291;52.010;4.446;2023-05-07T01:56:20;30.17;;;27.23;;
46563;SDS011;32291;52.010;4.446;2023-05-07T01:57:22;29.35;;;26.30;;
46563;SDS011;32291;52.010;4.446;2023-05-07T01:58:23;29.60;;;26.67;;
46563;SDS011;32291;52.010;4.446;2023-05-07T01:59:25;29.00;;;25.98;;
46563;SDS011;32291;52.010;4.446;2023-05-07T02:00:27;29.50;;;26.48;;
46563;SDS011;32291;52.010;4.446;2023-05-07T02:01:29;30.55;;;27.38;;
46563;SDS011;32291;52.010;4.446;2023-05-07T02:02:31;27.40;;;24.80;;
46563;SDS011;32291;52.010;4.446;2023-05-07T02:03:33;29.85;;;26.95;;
46563;SDS011;32291;52.010;4.446;2023-05-07T02:04:35;29.50;;;26.60;;
46563;SDS011;32291;52.010;4.446;2023-05-07T02:05:37;28.63;;;25.83;;
46563;SDS011;32291;52.010;4.446;2023-05-07T02:06:38;28.25;;;25.50;;
46563;SDS011;32291;52.010;4.446;2023-05-07T02:07:40;29.80;;;27.08;;
46563;SDS011;32291;52.010;4.446;2023-05-07T02:08:42;29.92;;;26.95;;
46563;SDS011;32291;52.010;4.446;2023-05-07T02:09:44;29.02;;;26.10;;
46563;SDS011;32291;52.010;4.446;2023-05-07T02:10:46;28.90;;;25.92;;
46563;SDS011;32291;52.010;4.446;2023-05-07T02:11:48;28.88;;;26.08;;
46563;SDS011;32291;52.010;4.446;2023-05-07T02:12:50;29.52;;;26.70;;
46563;SDS011;32291;52.010;4.446;2023-05-07T02:13:52;28.92;;;26.05;;
46563;SDS011;32291;52.010;4.446;2023-05-07T02:14:54;30.35;;;27.35;;
46563;SDS011;32291;52.010;4.446;2023-05-07T02:15:56;29.60;;;26.65;;
46563;SDS011;32291;52.010;4.446;2023-05-07T02:16:58;29.23;;;26.55;;
46563;SDS011;32291;52.010;4.446;2023-05-07T02:18:00;29.85;;;26.95;;
46563;SDS011;32291;52.010;4.446;2023-05-07T02:19:07;28.75;;;26.27;;
46563;SDS011;32291;52.010;4.446;2023-05-07T02:20:09;30.38;;;27.48;;
46563;SDS011;32291;52.010;4.446;2023-05-07T02:21:14;30.30;;;27.42;;
46563;SDS011;32291;52.010;4.446;2023-05-07T02:22:15;28.60;;;26.00;;
46563;SDS011;32291;52.010;4.446;2023-05-07T02:23:17;30.23;;;27.48;;
46563;SDS011;32291;52.010;4.446;2023-05-07T02:24:20;29.00;;;26.20;;
46563;SDS011;32291;52.010;4.446;2023-05-07T02:25:21;27.75;;;25.17;;
46563;SDS011;32291;52.010;4.446;2023-05-07T02:26:23;29.17;;;26.48;;
46563;SDS011;32291;52.010;4.446;2023-05-07T02:27:27;30.08;;;27.23;;
46563;SDS011;32291;52.010;4.446;2023-05-07T02:28:29;29.10;;;26.58;;
46563;SDS011;32291;52.010;4.446;2023-05-07T02:29:30;29.23;;;26.42;;
46563;SDS011;32291;52.010;4.446;2023-05-07T02:30:32;33.00;;;29.98;;
46563;SDS011;32291;52.010;4.446;2023-05-07T02:31:34;29.30;;;26.45;;
46563;SDS011;32291;52.010;4.446;2023-05-07T02:32:36;30.73;;;27.75;;
46563;SDS011;32291;52.010;4.446;2023-05-07T02:33:37;32.25;;;29.25;;
46563;SDS011;32291;52.010;4.446;2023-05-07T02:34:39;30.67;;;27.88;;
46563;SDS011;32291;52.010;4.446;2023-05-07T02:35:40;30.58;;;27.77;;
46563;SDS011;32291;52.010;4.446;2023-05-07T02:36:42;30.90;;;28.00;;
46563;SDS011;32291;52.010;4.446;2023-05-07T02:37:44;31.05;;;28.05;;
46563;SDS011;32291;52.010;4.446;2023-05-07T02:38:46;30.13;;;27.25;;
46563;SDS011;32291;52.010;4.446;2023-05-07T02:39:48;33.03;;;29.88;;
46563;SDS011;32291;52.010;4.446;2023-05-07T02:40:50;32.33;;;29.17;;
46563;SDS011;32291;52.010;4.446;2023-05-07T02:41:52;30.90;;;27.85;;
46563;SDS011;32291;52.010;4.446;2023-05-07T02:42:53;31.00;;;27.90;;
46563;SDS011;32291;52.010;4.446;2023-05-07T02:43:55;32.92;;;29.65;;
46563;SDS011;32291;52.010;4.446;2023-05-07T02:44:56;32.20;;;29.33;;
46563;SDS011;32291;52.010;4.446;2023-05-07T02:46:04;33.95;;;30.75;;
46563;SDS011;32291;52.010;4.446;2023-05-07T02:47:09;33.60;;;30.48;;
46563;SDS011;32291;52.010;4.446;2023-05-07T02:48:11;30.42;;;27.65;;
46563;SDS011;32291;52.010;4.446;2023-05-07T02:49:13;32.22;;;29.10;;
46563;SDS011;32291;52.010;4.446;2023-05-07T02:50:15;31.33;;;28.13;;
46563;SDS011;32291;52.010;4.446;2023-05-07T02:51:20;33.45;;;30.38;;
46563;SDS011;32291;52.010;4.446;2023-05-07T02:52:23;31.13;;;28.23;;
46563;SDS011;32291;52.010;4.446;2023-05-07T02:53:25;31.25;;;28.35;;
46563;SDS011;32291;52.010;4.446;2023-05-07T02:54:27;33.20;;;30.10;;
46563;SDS011;32291;52.010;4.446;2023-05-07T02:55:29;31.45;;;28.63;;
46563;SDS011;32291;52.010;4.446;2023-05-07T02:56:31;30.25;;;27.60;;
46563;SDS011;32291;52.010;4.446;2023-05-07T02:57:33;29.75;;;27.15;;
46563;SDS011;32291;52.010;4.446;2023-05-07T02:58:35;31.38;;;28.67;;
46563;SDS011;32291;52.010;4.446;2023-05-07T02:59:37;31.60;;;28.80;;
46563;SDS011;32291;52.010;4.446;2023-05-07T03:00:38;32.50;;;29.58;;
46563;SDS011;32291;52.010;4.446;2023-05-07T03:01:40;32.17;;;29.27;;
46563;SDS011;32291;52.010;4.446;2023-05-07T03:02:44;32.45;;;29.52;;
46563;SDS011;32291;52.010;4.446;2023-05-07T03:03:46;30.08;;;27.55;;
46563;SDS011;32291;52.010;4.446;2023-05-07T03:04:48;31.98;;;28.90;;
46563;SDS011;32291;52.010;4.446;2023-05-07T03:05:50;32.10;;;29.10;;
46563;SDS011;32291;52.010;4.446;2023-05-07T03:06:52;31.13;;;28.20;;
46563;SDS011;32291;52.010;4.446;2023-05-07T03:07:54;30.30;;;27.60;;
46563;SDS011;32291;52.010;4.446;2023-05-07T03:08:55;30.02;;;27.02;;
46563;SDS011;32291;52.010;4.446;2023-05-07T03:09:57;31.30;;;28.42;;
46563;SDS011;32291;52.010;4.446;2023-05-07T03:10:58;29.92;;;27.30;;
46563;SDS011;32291;52.010;4.446;2023-05-07T03:12:00;30.58;;;27.92;;
46563;SDS011;32291;52.010;4.446;2023-05-07T03:13:02;28.83;;;26.35;;
46563;SDS011;32291;52.010;4.446;2023-05-07T03:14:06;29.95;;;27.25;;
46563;SDS011;32291;52.010;4.446;2023-05-07T03:15:08;27.83;;;25.30;;
46563;SDS011;32291;52.010;4.446;2023-05-07T03:16:11;29.80;;;26.92;;
46563;SDS011;32291;52.010;4.446;2023-05-07T03:17:12;28.20;;;25.73;;
46563;SDS011;32291;52.010;4.446;2023-05-07T03:18:14;29.90;;;27.15;;
46563;SDS011;32291;52.010;4.446;2023-05-07T03:19:15;28.77;;;26.20;;
46563;SDS011;32291;52.010;4.446;2023-05-07T03:20:17;29.48;;;26.88;;
46563;SDS011;32291;52.010;4.446;2023-05-07T03:21:19;28.15;;;25.77;;
46563;SDS011;32291;52.010;4.446;2023-05-07T03:22:21;28.77;;;26.38;;
46563;SDS011;32291;52.010;4.446;2023-05-07T03:23:23;28.65;;;26.25;;
46563;SDS011;32291;52.010;4.446;2023-05-07T03:24:25;28.20;;;25.80;;
46563;SDS011;32291;52.010;4.446;2023-05-07T03:25:27;30.17;;;27.52;;
46563;SDS011;32291;52.010;4.446;2023-05-07T03:26:30;28.60;;;26.20;;
46563;SDS011;32291;52.010;4.446;2023-05-07T03:27:32;29.00;;;26.45;;
46563;SDS011;32291;52.010;4.446;2023-05-07T03:28:34;28.92;;;26.38;;
46563;SDS011;32291;52.010;4.446;2023-05-07T03:29:36;28.77;;;26.27;;
46563;SDS011;32291;52.010;4.446;2023-05-07T03:30:38;30.35;;;27.20;;
46563;SDS011;32291;52.010;4.446;2023-05-07T03:31:40;28.00;;;25.63;;
46563;SDS011;32291;52.010;4.446;2023-05-07T03:32:42;28.08;;;25.77;;
46563;SDS011;32291;52.010;4.446;2023-05-07T03:33:53;28.73;;;25.90;;
46563;SDS011;32291;52.010;4.446;2023-05-07T03:34:57;26.98;;;24.73;;
46563;SDS011;32291;52.010;4.446;2023-05-07T03:35:58;27.23;;;25.02;;
46563;SDS011;32291;52.010;4.446;2023-05-07T03:37:00;27.48;;;25.15;;
46563;SDS011;32291;52.010;4.446;2023-05-07T03:38:01;28.42;;;26.13;;
46563;SDS011;32291;52.010;4.446;2023-05-07T03:39:04;27.83;;;25.45;;
46563;SDS011;32291;52.010;4.446;2023-05-07T03:40:06;27.10;;;24.80;;
46563;SDS011;32291;52.010;4.446;2023-05-07T03:41:09;27.17;;;24.90;;
46563;SDS011;32291;52.010;4.446;2023-05-07T03:42:11;27.35;;;25.08;;
46563;SDS011;32291;52.010;4.446;2023-05-07T03:43:12;26.63;;;24.17;;
46563;SDS011;32291;52.010;4.446;2023-05-07T03:44:14;28.08;;;25.48;;
46563;SDS011;32291;52.010;4.446;2023-05-07T03:45:15;25.65;;;23.60;;
46563;SDS011;32291;52.010;4.446;2023-05-07T03:46:17;27.30;;;24.90;;
46563;SDS011;32291;52.010;4.446;2023-05-07T03:47:19;27.50;;;24.75;;
46563;SDS011;32291;52.010;4.446;2023-05-07T03:48:20;26.85;;;24.50;;
46563;SDS011;32291;52.010;4.446;2023-05-07T03:49:22;25.58;;;23.30;;
46563;SDS011;32291;52.010;4.446;2023-05-07T03:50:23;24.27;;;22.38;;
46563;SDS011;32291;52.010;4.446;2023-05-07T03:51:25;24.63;;;22.63;;
46563;SDS011;32291;52.010;4.446;2023-05-07T03:52:28;26.70;;;24.60;;
46563;SDS011;32291;52.010;4.446;2023-05-07T03:53:29;25.42;;;23.17;;
46563;SDS011;32291;52.010;4.446;2023-05-07T03:54:31;23.63;;;21.65;;
46563;SDS011;32291;52.010;4.446;2023-05-07T03:55:34;24.60;;;22.50;;
46563;SDS011;32291;52.010;4.446;2023-05-07T03:56:36;27.75;;;25.35;;
46563;SDS011;32291;52.010;4.446;2023-05-07T03:57:40;26.00;;;23.83;;
46563;SDS011;32291;52.010;4.446;2023-05-07T03:58:42;27.40;;;25.00;;
46563;SDS011;32291;52.010;4.446;2023-05-07T03:59:44;25.95;;;23.70;;
46563;SDS011;32291;52.010;4.446;2023-05-07T04:00:45;26.17;;;23.67;;
46563;SDS011;32291;52.010;4.446;2023-05-07T04:01:47;25.95;;;23.65;;
46563;SDS011;32291;52.010;4.446;2023-05-07T04:02:52;26.10;;;24.02;;
46563;SDS011;32291;52.010;4.446;2023-05-07T04:03:54;24.20;;;22.20;;
46563;SDS011;32291;52.010;4.446;2023-05-07T04:04:56;24.00;;;22.15;;
46563;SDS011;32291;52.010;4.446;2023-05-07T04:05:57;23.02;;;21.08;;
46563;SDS011;32291;52.010;4.446;2023-05-07T04:06:59;25.92;;;23.33;;
46563;SDS011;32291;52.010;4.446;2023-05-07T04:08:01;24.58;;;22.48;;
46563;SDS011;32291;52.010;4.446;2023-05-07T04:09:03;25.70;;;23.50;;
46563;SDS011;32291;52.010;4.446;2023-05-07T04:10:05;23.38;;;21.42;;
46563;SDS011;32291;52.010;4.446;2023-05-07T04:11:07;23.52;;;21.45;;
46563;SDS011;32291;52.010;4.446;2023-05-07T04:12:09;25.50;;;23.35;;
46563;SDS011;32291;52.010;4.446;2023-05-07T04:13:11;23.48;;;21.48;;
46563;SDS011;32291;52.010;4.446;2023-05-07T04:14:13;23.75;;;21.65;;
46563;SDS011;32291;52.010;4.446;2023-05-07T04:15:15;24.50;;;22.35;;
46563;SDS011;32291;52.010;4.446;2023-05-07T04:16:17;23.75;;;21.52;;
46563;SDS011;32291;52.010;4.446;2023-05-07T04:17:18;24.77;;;22.63;;
46563;SDS011;32291;52.010;4.446;2023-05-07T04:18:20;23.75;;;21.75;;
46563;SDS011;32291;52.010;4.446;2023-05-07T04:19:22;23.63;;;21.60;;
46563;SDS011;32291;52.010;4.446;2023-05-07T04:20:23;22.52;;;20.52;;
46563;SDS011;32291;52.010;4.446;2023-05-07T04:21:25;22.60;;;20.70;;
46563;SDS011;32291;52.010;4.446;2023-05-07T04:22:27;23.25;;;21.33;;
46563;SDS011;32291;52.010;4.446;2023-05-07T04:23:28;22.52;;;20.73;;
46563;SDS011;32291;52.010;4.446;2023-05-07T04:24:33;23.50;;;21.50;;
46563;SDS011;32291;52.010;4.446;2023-05-07T04:25:34;22.20;;;20.50;;
46563;SDS011;32291;52.010;4.446;2023-05-07T04:26:36;20.23;;;18.40;;
46563;SDS011;32291;52.010;4.446;2023-05-07T04:27:38;22.30;;;20.27;;
46563;SDS011;32291;52.010;4.446;2023-05-07T04:28:40;21.95;;;20.13;;
46563;SDS011;32291;52.010;4.446;2023-05-07T04:29:43;21.95;;;20.05;;
46563;SDS011;32291;52.010;4.446;2023-05-07T04:30:49;22.42;;;20.52;;
46563;SDS011;32291;52.010;4.446;2023-05-07T04:31:51;21.55;;;19.70;;
46563;SDS011;32291;52.010;4.446;2023-05-07T04:32:52;22.77;;;20.63;;
46563;SDS011;32291;52.010;4.446;2023-05-07T04:33:54;23.27;;;21.30;;
46563;SDS011;32291;52.010;4.446;2023-05-07T04:34:56;21.35;;;19.35;;
46563;SDS011;32291;52.010;4.446;2023-05-07T04:36:00;21.83;;;19.92;;
46563;SDS011;32291;52.010;4.446;2023-05-07T04:37:03;21.70;;;19.88;;
46563;SDS011;32291;52.010;4.446;2023-05-07T04:38:05;20.58;;;18.77;;
46563;SDS011;32291;52.010;4.446;2023-05-07T04:39:07;20.45;;;18.75;;
46563;SDS011;32291;52.010;4.446;2023-05-07T04:40:08;22.65;;;20.77;;
46563;SDS011;32291;52.010;4.446;2023-05-07T04:41:12;21.85;;;19.70;;
46563;SDS011;32291;52.010;4.446;2023-05-07T04:42:17;21.13;;;19.30;;
46563;SDS011;32291;52.010;4.446;2023-05-07T04:43:19;21.63;;;19.70;;
46563;SDS011;32291;52.010;4.446;2023-05-07T04:44:21;20.50;;;18.90;;
46563;SDS011;32291;52.010;4.446;2023-05-07T04:45:23;20.17;;;18.55;;
46563;SDS011;32291;52.010;4.446;2023-05-07T04:46:24;19.88;;;18.20;;
46563;SDS011;32291;52.010;4.446;2023-05-07T04:47:26;20.52;;;18.73;;
46563;SDS011;32291;52.010;4.446;2023-05-07T04:48:27;19.60;;;18.00;;
46563;SDS011;32291;52.010;4.446;2023-05-07T04:49:29;19.17;;;17.65;;
46563;SDS011;32291;52.010;4.446;2023-05-07T04:50:31;19.80;;;18.20;;
46563;SDS011;32291;52.010;4.446;2023-05-07T04:51:33;19.95;;;18.17;;
46563;SDS011;32291;52.010;4.446;2023-05-07T04:52:35;20.60;;;18.90;;
46563;SDS011;32291;52.010;4.446;2023-05-07T04:53:37;20.15;;;18.52;;
46563;SDS011;32291;52.010;4.446;2023-05-07T04:54:39;21.27;;;19.27;;
46563;SDS011;32291;52.010;4.446;2023-05-07T04:55:40;20.20;;;18.52;;
46563;SDS011;32291;52.010;4.446;2023-05-07T04:56:42;20.77;;;19.08;;
46563;SDS011;32291;52.010;4.446;2023-05-07T04:57:43;20.67;;;18.95;;
46563;SDS011;32291;52.010;4.446;2023-05-07T04:58:46;20.30;;;18.58;;
46563;SDS011;32291;52.010;4.446;2023-05-07T04:59:48;20.13;;;18.33;;
46563;SDS011;32291;52.010;4.446;2023-05-07T05:00:50;19.50;;;17.98;;
46563;SDS011;32291;52.010;4.446;2023-05-07T05:01:51;21.02;;;19.23;;
46563;SDS011;32291;52.010;4.446;2023-05-07T05:02:53;19.88;;;18.27;;
46563;SDS011;32291;52.010;4.446;2023-05-07T05:03:54;19.92;;;18.33;;
46563;SDS011;32291;52.010;4.446;2023-05-07T05:04:56;20.02;;;18.48;;
46563;SDS011;32291;52.010;4.446;2023-05-07T05:05:57;20.38;;;18.77;;
46563;SDS011;32291;52.010;4.446;2023-05-07T05:07:00;19.95;;;18.27;;
46563;SDS011;32291;52.010;4.446;2023-05-07T05:08:02;18.92;;;17.30;;
46563;SDS011;32291;52.010;4.446;2023-05-07T05:09:03;20.17;;;18.58;;
46563;SDS011;32291;52.010;4.446;2023-05-07T05:10:05;18.63;;;17.05;;
46563;SDS011;32291;52.010;4.446;2023-05-07T05:11:07;19.52;;;17.92;;
46563;SDS011;32291;52.010;4.446;2023-05-07T05:12:09;19.77;;;18.17;;
46563;SDS011;32291;52.010;4.446;2023-05-07T05:13:10;20.15;;;18.55;;
46563;SDS011;32291;52.010;4.446;2023-05-07T05:14:13;19.10;;;17.60;;
46563;SDS011;32291;52.010;4.446;2023-05-07T05:15:14;19.13;;;17.58;;
46563;SDS011;32291;52.010;4.446;2023-05-07T05:16:16;19.35;;;17.67;;
46563;SDS011;32291;52.010;4.446;2023-05-07T05:17:18;20.25;;;18.50;;
46563;SDS011;32291;52.010;4.446;2023-05-07T05:18:20;18.45;;;17.05;;
46563;SDS011;32291;52.010;4.446;2023-05-07T05:19:22;20.10;;;18.50;;
46563;SDS011;32291;52.010;4.446;2023-05-07T05:20:23;18.20;;;16.60;;
46563;SDS011;32291;52.010;4.446;2023-05-07T05:21:25;19.23;;;17.63;;
46563;SDS011;32291;52.010;4.446;2023-05-07T05:22:27;18.80;;;17.17;;
46563;SDS011;32291;52.010;4.446;2023-05-07T05:23:32;18.58;;;17.17;;
46563;SDS011;32291;52.010;4.446;2023-05-07T05:24:34;19.48;;;17.90;;
46563;SDS011;32291;52.010;4.446;2023-05-07T05:25:35;18.55;;;17.02;;
46563;SDS011;32291;52.010;4.446;2023-05-07T05:26:38;18.75;;;17.10;;
46563;SDS011;32291;52.010;4.446;2023-05-07T05:27:39;18.95;;;17.45;;
46563;SDS011;32291;52.010;4.446;2023-05-07T05:28:41;16.90;;;15.60;;
46563;SDS011;32291;52.010;4.446;2023-05-07T05:29:42;17.17;;;15.70;;
46563;SDS011;32291;52.010;4.446;2023-05-07T05:30:44;15.13;;;13.93;;
46563;SDS011;32291;52.010;4.446;2023-05-07T05:31:46;17.63;;;16.17;;
46563;SDS011;32291;52.010;4.446;2023-05-07T05:32:47;18.10;;;16.55;;
46563;SDS011;32291;52.010;4.446;2023-05-07T05:33:49;16.25;;;14.95;;
46563;SDS011;32291;52.010;4.446;2023-05-07T05:34:50;17.80;;;16.20;;
46563;SDS011;32291;52.010;4.446;2023-05-07T05:35:55;18.35;;;16.75;;
46563;SDS011;32291;52.010;4.446;2023-05-07T05:36:58;17.75;;;16.33;;
46563;SDS011;32291;52.010;4.446;2023-05-07T05:38:00;17.83;;;16.42;;
46563;SDS011;32291;52.010;4.446;2023-05-07T05:39:03;19.38;;;17.77;;
46563;SDS011;32291;52.010;4.446;2023-05-07T05:40:05;17.30;;;15.90;;
46563;SDS011;32291;52.010;4.446;2023-05-07T05:41:07;17.95;;;16.42;;
46563;SDS011;32291;52.010;4.446;2023-05-07T05:42:09;18.48;;;16.95;;
46563;SDS011;32291;52.010;4.446;2023-05-07T05:43:10;18.40;;;16.63;;
46563;SDS011;32291;52.010;4.446;2023-05-07T05:44:12;18.52;;;17.05;;
46563;SDS011;32291;52.010;4.446;2023-05-07T05:45:14;18.00;;;16.52;;
46563;SDS011;32291;52.010;4.446;2023-05-07T05:46:16;17.90;;;16.45;;
46563;SDS011;32291;52.010;4.446;2023-05-07T05:47:17;16.83;;;15.45;;
46563;SDS011;32291;52.010;4.446;2023-05-07T05:48:19;18.00;;;16.50;;
46563;SDS011;32291;52.010;4.446;2023-05-07T05:49:21;17.45;;;15.90;;
46563;SDS011;32291;52.010;4.446;2023-05-07T05:50:23;15.43;;;14.07;;
46563;SDS011;32291;52.010;4.446;2023-05-07T05:51:24;17.27;;;15.77;;
46563;SDS011;32291;52.010;4.446;2023-05-07T05:52:27;17.23;;;15.82;;
46563;SDS011;32291;52.010;4.446;2023-05-07T05:53:29;17.30;;;15.77;;
46563;SDS011;32291;52.010;4.446;2023-05-07T05:54:30;15.63;;;14.43;;
46563;SDS011;32291;52.010;4.446;2023-05-07T05:55:32;16.65;;;15.35;;
46563;SDS011;32291;52.010;4.446;2023-05-07T05:56:35;16.98;;;15.68;;
46563;SDS011;32291;52.010;4.446;2023-05-07T05:57:37;17.15;;;15.68;;
46563;SDS011;32291;52.010;4.446;2023-05-07T05:58:40;17.70;;;16.02;;
46563;SDS011;32291;52.010;4.446;2023-05-07T05:59:44;17.73;;;16.17;;
46563;SDS011;32291;52.010;4.446;2023-05-07T06:00:48;16.00;;;14.50;;
46563;SDS011;32291;52.010;4.446;2023-05-07T06:01:53;15.63;;;14.25;;
46563;SDS011;32291;52.010;4.446;2023-05-07T06:02:55;15.82;;;14.63;;
46563;SDS011;32291;52.010;4.446;2023-05-07T06:03:57;16.90;;;15.43;;
46563;SDS011;32291;52.010;4.446;2023-05-07T06:04:59;15.95;;;14.73;;